Skive, Denmark
Current Conditions -  °F | °C
As of 1:08 AM on Saturday 27 Dec 2014 (Local Time) from EKKA Reporting Station
Moderate Fog Moderate Fog  
Wind Chill: 22°   Ceiling: 200
Heat Index: 28°   Visibility: 0.18mi
Dew Point: 28°   Wind: 6mph
Humidity: 100%   Direction: 180°S
Pressure: 30"   Gusts: NA
Location:  56.57°N, 9.02°E
Report Text: EKKA 270008Z AUTO 18005KT 0300NDV R09R/1200N R27L/1000NFZFG VV002 M02/M02 Q1016 R27L/790295
Loading
Personal Weather Stations






























Interactive Weather Map New forecast layout! Learn more

10-Day Weather Forecast

Advertisements
Track Severe Weather on mobile